createdAt,value
2019-02-09T00:01:00.703Z,0
2019-02-09T00:02:10.440Z,0
2019-02-09T00:03:20.124Z,0
2019-02-09T00:04:30.047Z,0
2019-02-09T00:05:39.723Z,0
2019-02-09T00:06:49.401Z,0
2019-02-09T00:07:59.143Z,0
2019-02-09T00:09:08.881Z,0
2019-02-09T00:10:18.832Z,0
2019-02-09T00:11:28.766Z,0
2019-02-09T00:12:39.329Z,0
2019-02-09T00:13:49.254Z,0
2019-02-09T00:14:58.696Z,0
2019-02-09T00:16:08.375Z,0
2019-02-09T00:17:18.065Z,0
2019-02-09T00:18:27.733Z,0
2019-02-09T00:19:37.427Z,0
2019-02-09T00:20:46.868Z,0
2019-02-09T00:21:56.545Z,0
2019-02-09T00:23:06.500Z,0
2019-02-09T00:24:16.183Z,0
2019-02-09T00:25:25.359Z,0
2019-02-09T00:26:34.785Z,0
2019-02-09T00:27:44.215Z,0
2019-02-09T00:28:53.927Z,0
2019-02-09T00:30:03.357Z,0
2019-02-09T00:31:13.591Z,0
2019-02-09T00:32:23.282Z,0
2019-02-09T00:33:32.976Z,0
2019-02-09T00:34:42.401Z,0
2019-02-09T00:35:51.854Z,0
2019-02-09T00:37:00.781Z,0
2019-02-09T00:38:10.467Z,0
2019-02-09T00:39:20.388Z,0
2019-02-09T00:40:30.334Z,0
2019-02-09T00:41:40.256Z,0
2019-02-09T00:42:49.929Z,0
2019-02-09T00:43:59.866Z,0
2019-02-09T00:45:09.342Z,0
2019-02-09T00:46:18.782Z,0
2019-02-09T00:47:28.455Z,0
2019-02-09T00:48:37.899Z,0
2019-02-09T00:49:47.572Z,0
2019-02-09T00:50:56.745Z,0
2019-02-09T00:52:06.168Z,0
2019-02-09T00:53:16.096Z,0
2019-02-09T00:54:25.523Z,0
2019-02-09T00:55:35.207Z,0
2019-02-09T00:56:45.128Z,0
2019-02-09T00:57:54.830Z,0
2019-02-09T00:59:04.529Z,0
2019-02-09T01:00:14.209Z,0
2019-02-09T01:01:23.894Z,0
2019-02-09T01:02:33.823Z,0
2019-02-09T01:03:43.508Z,0
2019-02-09T01:04:52.935Z,0
2019-02-09T01:06:02.875Z,0
2019-02-09T01:07:12.293Z,0
2019-02-09T01:08:22.209Z,0
2019-02-09T01:09:31.887Z,0
2019-02-09T01:10:41.572Z,0
2019-02-09T01:11:51.500Z,0
2019-02-09T01:13:01.448Z,0
2019-02-09T01:14:10.890Z,0
2019-02-09T01:15:20.317Z,0
2019-02-09T01:16:30.251Z,0
2019-02-09T01:17:39.685Z,0
2019-02-09T01:18:49.373Z,0
2019-02-09T01:19:59.049Z,0
2019-02-09T01:21:08.984Z,0
2019-02-09T01:22:18.907Z,0
2019-02-09T01:23:28.593Z,0
2019-02-09T01:24:38.513Z,0
2019-02-09T01:25:47.955Z,0
2019-02-09T01:27:26.973Z,0
2019-02-09T01:28:36.175Z,0
2019-02-09T01:29:46.111Z,0
2019-02-09T01:30:55.579Z,0
2019-02-09T01:32:05.295Z,0
2019-02-09T01:33:15.245Z,0
2019-02-09T01:34:25.163Z,0
2019-02-09T01:35:34.590Z,0
2019-02-09T01:36:44.031Z,0
2019-02-09T01:37:53.996Z,0
2019-02-09T01:39:03.933Z,0
2019-02-09T01:40:13.119Z,0
2019-02-09T01:41:22.795Z,0
2019-02-09T01:42:31.990Z,0
2019-02-09T01:43:41.666Z,0
2019-02-09T01:44:51.113Z,0
2019-02-09T01:46:00.560Z,0
2019-02-09T01:47:10.245Z,0
2019-02-09T01:48:19.916Z,0
2019-02-09T01:49:29.348Z,0
2019-02-09T01:50:39.332Z,0
2019-02-09T01:51:49.015Z,0
2019-02-09T01:52:58.694Z,0
2019-02-09T01:54:08.389Z,0
2019-02-09T01:55:18.316Z,0
2019-02-09T01:56:27.997Z,0
2019-02-09T01:57:37.978Z,0
2019-02-09T01:58:47.651Z,0
2019-02-09T01:59:57.323Z,0
2019-02-09T02:01:07.011Z,0
2019-02-09T02:02:16.683Z,0
2019-02-09T02:03:26.378Z,0
2019-02-09T02:04:36.070Z,0
2019-02-09T02:05:45.751Z,0
2019-02-09T02:06:55.428Z,0
2019-02-09T02:08:05.100Z,0
2019-02-09T02:09:15.031Z,0
2019-02-09T02:10:24.965Z,0
2019-02-09T02:11:34.691Z,0
2019-02-09T02:12:44.111Z,0
2019-02-09T02:13:53.789Z,0
2019-02-09T02:15:03.713Z,0
2019-02-09T02:16:13.144Z,0
2019-02-09T02:17:22.336Z,0
2019-02-09T02:18:31.761Z,0
2019-02-09T02:19:41.487Z,0
2019-02-09T02:20:50.921Z,0
2019-02-09T02:22:00.103Z,0
2019-02-09T02:23:09.910Z,0
2019-02-09T02:24:19.833Z,0
2019-02-09T02:25:30.898Z,0
2019-02-09T02:26:40.572Z,0
2019-02-09T02:27:49.744Z,0
2019-02-09T02:28:59.482Z,0
2019-02-09T02:30:09.473Z,0
2019-02-09T02:31:19.180Z,0
2019-02-09T02:32:28.861Z,0
2019-02-09T02:33:38.794Z,0
2019-02-09T02:34:48.738Z,0
2019-02-09T02:35:58.678Z,0
2019-02-09T02:37:08.626Z,0
2019-02-09T02:38:18.298Z,0
2019-02-09T02:39:27.779Z,0
2019-02-09T02:40:37.716Z,0
2019-02-09T02:41:47.660Z,0
2019-02-09T02:42:57.111Z,0
2019-02-09T02:44:07.039Z,0
2019-02-09T02:45:16.739Z,0
2019-02-09T02:46:26.432Z,0
2019-02-09T02:47:37.530Z,0
2019-02-09T02:48:47.563Z,0
2019-02-09T02:49:57.245Z,0
2019-02-09T02:51:06.926Z,0
2019-02-09T02:52:16.600Z,0
2019-02-09T02:53:26.335Z,0
2019-02-09T02:54:36.023Z,0
2019-02-09T02:55:45.466Z,0
2019-02-09T02:56:55.145Z,0
2019-02-09T02:58:05.081Z,0
2019-02-09T02:59:15.020Z,0
2019-02-09T03:00:34.108Z,0
2019-02-09T03:01:44.059Z,0
2019-02-09T03:02:53.482Z,0
2019-02-09T03:04:02.917Z,0
2019-02-09T03:05:12.853Z,0
2019-02-09T03:06:22.285Z,0
2019-02-09T03:07:32.214Z,0
2019-02-09T03:08:42.150Z,0
2019-02-09T03:09:51.876Z,0
2019-02-09T03:11:01.569Z,0
2019-02-09T03:12:11.496Z,0
2019-02-09T03:13:21.186Z,0
2019-02-09T03:14:30.624Z,0
2019-02-09T03:15:40.599Z,0
2019-02-09T03:16:50.026Z,0
2019-02-09T03:17:59.967Z,0
2019-02-09T03:19:09.893Z,0
2019-02-09T03:20:19.834Z,0
2019-02-09T03:21:29.792Z,0
2019-02-09T03:22:39.727Z,0
2019-02-09T03:23:48.668Z,0
2019-02-09T03:24:58.662Z,0
2019-02-09T03:26:08.344Z,0
2019-02-09T03:27:18.268Z,0
2019-02-09T03:28:27.943Z,0
2019-02-09T03:29:37.617Z,0
2019-02-09T03:30:57.225Z,0
2019-02-09T03:32:06.984Z,0
2019-02-09T03:33:17.064Z,0
2019-02-09T03:34:26.756Z,0
2019-02-09T03:35:35.946Z,0
2019-02-09T03:36:45.403Z,0
2019-02-09T03:37:54.834Z,0
2019-02-09T03:39:05.968Z,0
2019-02-09T03:40:16.061Z,0
2019-02-09T03:41:25.997Z,0
2019-02-09T03:42:35.670Z,0
2019-02-09T03:43:44.862Z,0
2019-02-09T03:44:54.548Z,0
2019-02-09T03:46:04.231Z,0
2019-02-09T03:47:13.931Z,0
2019-02-09T03:48:23.381Z,0
2019-02-09T03:49:32.821Z,0
2019-02-09T03:50:42.637Z,0
2019-02-09T03:51:52.567Z,0
2019-02-09T03:53:02.256Z,0
2019-02-09T03:54:12.189Z,0
2019-02-09T03:55:22.117Z,0
2019-02-09T03:56:32.047Z,0
2019-02-09T03:57:41.967Z,0
2019-02-09T03:58:51.894Z,0
2019-02-09T04:00:01.877Z,0
2019-02-09T04:01:11.578Z,0
2019-02-09T04:02:21.517Z,0
2019-02-09T04:03:31.458Z,0
2019-02-09T04:04:41.392Z,0
2019-02-09T04:05:51.070Z,0
2019-02-09T04:07:00.541Z,0
2019-02-09T04:08:10.496Z,0
2019-02-09T04:09:19.934Z,0
2019-02-09T04:10:29.433Z,0
2019-02-09T04:11:39.382Z,0
2019-02-09T04:12:49.074Z,0
2019-02-09T04:13:58.758Z,0
2019-02-09T04:15:08.695Z,0
2019-02-09T04:16:18.623Z,0
2019-02-09T04:17:28.557Z,0
2019-02-09T04:18:38.510Z,0
2019-02-09T04:19:48.522Z,0
2019-02-09T04:20:58.233Z,0
2019-02-09T04:22:08.160Z,0
2019-02-09T04:23:18.092Z,0
2019-02-09T04:24:27.522Z,0
2019-02-09T04:25:37.527Z,0
2019-02-09T04:26:46.961Z,0
2019-02-09T04:27:56.926Z,0
2019-02-09T04:29:06.378Z,0
2019-02-09T04:30:17.710Z,0
2019-02-09T04:31:27.167Z,0
2019-02-09T04:32:36.600Z,0
2019-02-09T04:33:46.306Z,0
2019-02-09T04:34:55.990Z,0
2019-02-09T04:36:05.685Z,0
2019-02-09T04:37:15.621Z,0
2019-02-09T04:38:25.549Z,0
2019-02-09T04:39:35.246Z,0
2019-02-09T04:40:44.920Z,0
2019-02-09T04:41:54.846Z,0
2019-02-09T04:43:04.798Z,0
2019-02-09T04:44:14.238Z,0
2019-02-09T04:45:24.196Z,0
2019-02-09T04:46:33.626Z,0
2019-02-09T04:47:43.570Z,0
2019-02-09T04:48:53.514Z,0
2019-02-09T04:50:02.738Z,0
2019-02-09T04:51:12.193Z,0
2019-02-09T04:52:22.134Z,0
2019-02-09T04:53:31.813Z,0
2019-02-09T04:54:41.513Z,0
2019-02-09T04:55:51.193Z,0
2019-02-09T04:57:00.877Z,0
2019-02-09T04:58:10.349Z,0
2019-02-09T04:59:20.293Z,0
2019-02-09T05:00:29.988Z,0
2019-02-09T05:01:39.681Z,0
2019-02-09T05:02:49.383Z,0
2019-02-09T05:03:59.065Z,0
2019-02-09T05:05:08.776Z,0
2019-02-09T05:06:18.764Z,0
2019-02-09T05:07:28.445Z,0
2019-02-09T05:08:38.136Z,0
2019-02-09T05:09:47.824Z,0
2019-02-09T05:10:57.759Z,0
2019-02-09T05:12:07.186Z,0
2019-02-09T05:13:16.614Z,0
2019-02-09T05:14:25.820Z,0
2019-02-09T05:15:35.497Z,0
2019-02-09T05:16:45.186Z,0
2019-02-09T05:17:54.369Z,0
2019-02-09T05:19:04.308Z,0
2019-02-09T05:20:13.997Z,0
2019-02-09T05:21:23.929Z,0
2019-02-09T05:22:33.870Z,0
2019-02-09T05:23:43.817Z,0
2019-02-09T05:24:53.751Z,0
2019-02-09T05:26:03.426Z,0
2019-02-09T05:27:12.609Z,0
2019-02-09T05:28:22.291Z,0
2019-02-09T05:29:31.719Z,0
2019-02-09T05:30:41.647Z,0
2019-02-09T05:31:51.074Z,0
2019-02-09T05:33:03.149Z,0
2019-02-09T05:34:12.336Z,0
2019-02-09T05:35:22.087Z,0
2019-02-09T05:36:31.789Z,0
2019-02-09T05:37:41.471Z,0
2019-02-09T05:38:51.393Z,0
2019-02-09T05:40:01.073Z,0
2019-02-09T05:41:10.999Z,0
2019-02-09T05:42:20.935Z,0
2019-02-09T05:43:30.373Z,0
2019-02-09T05:44:40.093Z,0
2019-02-09T05:45:49.571Z,0
2019-02-09T05:46:59.509Z,0
2019-02-09T05:48:09.195Z,0
2019-02-09T05:49:20.408Z,0
2019-02-09T05:50:30.084Z,0
2019-02-09T05:51:40.020Z,0
2019-02-09T05:52:49.457Z,0
2019-02-09T05:53:58.896Z,0
2019-02-09T05:55:08.820Z,0
2019-02-09T05:56:18.768Z,0
2019-02-09T05:57:28.475Z,0
2019-02-09T05:58:38.399Z,0
2019-02-09T05:59:47.893Z,0
2019-02-09T06:00:57.069Z,0
2019-02-09T06:02:06.999Z,0
2019-02-09T06:03:16.421Z,0
2019-02-09T06:04:26.222Z,0
2019-02-09T06:05:36.145Z,0
2019-02-09T06:06:45.884Z,0
2019-02-09T06:07:55.066Z,0
2019-02-09T06:09:04.771Z,0
2019-02-09T06:10:14.494Z,0
2019-02-09T06:11:26.412Z,0
2019-02-09T06:12:36.336Z,0
2019-02-09T06:13:46.290Z,0
2019-02-09T06:14:55.974Z,0
2019-02-09T06:16:05.652Z,0
2019-02-09T06:17:15.332Z,0
2019-02-09T06:18:25.007Z,0
2019-02-09T06:19:34.206Z,0
2019-02-09T06:20:43.889Z,0
2019-02-09T06:21:53.071Z,0
2019-02-09T06:23:03.035Z,0
2019-02-09T06:24:12.965Z,0
2019-02-09T06:25:22.949Z,0
2019-02-09T06:26:32.897Z,0
2019-02-09T06:27:42.590Z,0
2019-02-09T06:28:52.265Z,0
2019-02-09T06:30:01.939Z,0
2019-02-09T06:31:11.623Z,0
2019-02-09T06:32:21.060Z,0
2019-02-09T06:33:30.742Z,0
2019-02-09T06:34:40.663Z,0
2019-02-09T06:35:50.341Z,0
2019-02-09T06:37:00.270Z,0
2019-02-09T06:38:09.968Z,0
2019-02-09T06:39:19.646Z,0
2019-02-09T06:40:29.633Z,0
2019-02-09T06:41:39.323Z,0
2019-02-09T06:42:49.250Z,0
2019-02-09T06:43:58.933Z,0
2019-02-09T06:45:08.609Z,0
2019-02-09T06:46:18.527Z,0
2019-02-09T06:47:27.947Z,0
2019-02-09T06:48:37.631Z,0
2019-02-09T06:49:47.306Z,0
2019-02-09T06:50:56.987Z,0
2019-02-09T06:52:06.415Z,0
2019-02-09T06:53:15.589Z,5
2019-02-09T06:54:25.269Z,5
2019-02-09T06:55:34.724Z,5
2019-02-09T06:56:44.668Z,5
2019-02-09T06:57:54.348Z,5
2019-02-09T06:59:04.025Z,5
2019-02-09T07:00:13.949Z,10
2019-02-09T07:01:23.879Z,10
2019-02-09T07:02:33.801Z,10
2019-02-09T07:03:43.738Z,10
2019-02-09T07:04:53.657Z,15
2019-02-09T07:06:03.327Z,15
2019-02-09T07:07:13.031Z,15
2019-02-09T07:08:23.969Z,15
2019-02-09T07:09:33.645Z,15
2019-02-09T07:10:43.067Z,15
2019-02-09T07:11:52.997Z,15
2019-02-09T07:13:02.922Z,20
2019-02-09T07:14:12.597Z,20
2019-02-09T07:15:22.042Z,20
2019-02-09T07:16:31.491Z,20
2019-02-09T07:17:40.928Z,20
2019-02-09T07:18:50.862Z,20
2019-02-09T07:20:00.533Z,20
2019-02-09T07:21:10.222Z,25
2019-02-09T07:22:20.158Z,25
2019-02-09T07:25:18.093Z,25
2019-02-09T07:26:27.820Z,25
2019-02-09T07:27:37.501Z,30
2019-02-09T07:28:47.180Z,35
2019-02-09T07:29:57.149Z,45
2019-02-09T07:31:06.577Z,50
2019-02-09T07:32:16.249Z,50
2019-02-09T07:33:26.009Z,45
2019-02-09T07:34:35.186Z,35
2019-02-09T07:35:46.306Z,30
2019-02-09T07:36:55.509Z,35
2019-02-09T07:38:05.434Z,45
2019-02-09T07:39:15.112Z,55
2019-02-09T07:40:25.034Z,60
2019-02-09T07:41:34.229Z,60
2019-02-09T07:42:43.917Z,70
2019-02-09T07:43:53.621Z,75
2019-02-09T07:45:03.044Z,70
2019-02-09T07:46:12.965Z,80
2019-02-09T07:47:22.149Z,85
2019-02-09T07:48:33.653Z,100
2019-02-09T07:49:43.333Z,85
2019-02-09T07:50:53.275Z,100
2019-02-09T07:52:02.466Z,105
2019-02-09T07:53:12.150Z,115
2019-02-09T07:54:21.583Z,105
2019-02-09T07:55:31.022Z,100
2019-02-09T07:56:40.966Z,90
2019-02-09T07:57:50.640Z,100
2019-02-09T07:59:00.574Z,100
2019-02-09T08:00:10.251Z,100
2019-02-09T08:01:20.181Z,95
2019-02-09T08:02:29.868Z,100
2019-02-09T08:03:39.805Z,110
2019-02-09T08:04:49.743Z,95
2019-02-09T08:05:59.177Z,95
2019-02-09T08:07:08.359Z,85
2019-02-09T08:08:17.792Z,90
2019-02-09T08:09:27.464Z,105
2019-02-09T08:10:36.901Z,130
2019-02-09T08:11:46.327Z,120
2019-02-09T08:12:56.261Z,140
2019-02-09T08:14:06.186Z,125
2019-02-09T08:15:15.364Z,135
2019-02-09T08:16:24.797Z,150
2019-02-09T08:17:34.227Z,135
2019-02-09T08:18:44.032Z,140
2019-02-09T08:19:53.724Z,140
2019-02-09T08:21:03.651Z,130
2019-02-09T08:22:13.701Z,105
2019-02-09T08:23:23.684Z,110
2019-02-09T08:24:33.627Z,125
2019-02-09T08:25:43.576Z,115
2019-02-09T08:26:53.289Z,120
2019-02-09T08:28:02.976Z,120
2019-02-09T08:29:12.412Z,140
2019-02-09T08:30:22.097Z,150
2019-02-09T08:31:31.772Z,140
2019-02-09T08:32:41.720Z,125
2019-02-09T08:33:50.660Z,120
2019-02-09T08:35:00.169Z,125
2019-02-09T08:36:09.861Z,150
2019-02-09T08:37:19.352Z,150
2019-02-09T08:38:28.811Z,190
2019-02-09T08:39:38.501Z,165
2019-02-09T08:40:48.431Z,165
2019-02-09T08:41:58.117Z,175
2019-02-09T08:43:07.799Z,175
2019-02-09T08:44:17.469Z,150
2019-02-09T08:45:26.912Z,160
2019-02-09T08:46:36.593Z,140
2019-02-09T08:47:46.535Z,155
2019-02-09T08:48:55.987Z,190
2019-02-09T08:50:05.676Z,175
2019-02-09T08:51:15.379Z,185
2019-02-09T08:52:24.817Z,200
2019-02-09T08:53:34.246Z,180
2019-02-09T08:54:43.678Z,175
2019-02-09T08:55:52.861Z,180
2019-02-09T08:57:02.292Z,190
2019-02-09T08:58:12.018Z,200
2019-02-09T08:59:21.449Z,175
2019-02-09T09:00:31.380Z,185
2019-02-09T09:01:41.063Z,180
2019-02-09T09:02:50.743Z,185
2019-02-09T09:04:00.675Z,180
2019-02-09T09:05:18.588Z,190
2019-02-09T09:06:28.287Z,190
2019-02-09T09:07:38.216Z,210
2019-02-09T09:08:47.651Z,225
2019-02-09T09:09:57.352Z,245
2019-02-09T09:11:08.366Z,240
2019-02-09T09:12:18.308Z,205
2019-02-09T09:13:28.233Z,185
2019-02-09T09:14:37.443Z,190
2019-02-09T09:15:47.378Z,200
2019-02-09T09:16:56.561Z,185
2019-02-09T09:18:06.242Z,180
2019-02-09T09:19:16.170Z,220
2019-02-09T09:20:25.611Z,215
2019-02-09T09:21:35.297Z,205
2019-02-09T09:22:46.078Z,175
2019-02-09T09:23:55.781Z,165
2019-02-09T09:25:05.468Z,170
2019-02-09T09:26:14.654Z,210
2019-02-09T09:27:24.394Z,230
2019-02-09T09:28:34.326Z,225
2019-02-09T09:29:43.821Z,210
2019-02-09T09:30:53.038Z,250
2019-02-09T09:32:02.732Z,230
2019-02-09T09:33:12.664Z,215
2019-02-09T09:34:22.105Z,240
2019-02-09T09:35:31.552Z,250
2019-02-09T09:36:40.986Z,290
2019-02-09T09:37:50.913Z,285
2019-02-09T09:39:00.351Z,285
2019-02-09T09:40:10.350Z,265
2019-02-09T09:41:20.026Z,265
2019-02-09T09:42:29.718Z,255
2019-02-09T09:43:41.050Z,250
2019-02-09T09:44:50.491Z,200
2019-02-09T09:45:59.935Z,190
2019-02-09T09:47:09.388Z,195
2019-02-09T09:48:19.343Z,210
2019-02-09T09:49:29.041Z,260
2019-02-09T09:50:38.977Z,225
2019-02-09T09:51:48.151Z,225
2019-02-09T09:52:57.581Z,220
2019-02-09T09:54:07.528Z,200
2019-02-09T09:55:17.218Z,190
2019-02-09T09:56:26.648Z,225
2019-02-09T09:57:36.336Z,255
2019-02-09T09:58:46.025Z,260
2019-02-09T09:59:55.701Z,255
2019-02-09T10:01:05.638Z,250
2019-02-09T10:02:15.325Z,250
2019-02-09T10:03:25.005Z,245
2019-02-09T10:04:34.956Z,270
2019-02-09T10:05:44.638Z,230
2019-02-09T10:06:54.586Z,245
2019-02-09T10:08:03.785Z,255
2019-02-09T10:09:13.717Z,250
2019-02-09T10:10:23.713Z,235
2019-02-09T10:11:33.417Z,220
2019-02-09T10:12:43.357Z,265
2019-02-09T10:13:52.798Z,275
2019-02-09T10:15:02.585Z,315
2019-02-09T10:16:12.286Z,340
2019-02-09T10:17:21.493Z,315
2019-02-09T10:18:30.948Z,310
2019-02-09T10:19:40.635Z,300
2019-02-09T10:20:50.061Z,250
2019-02-09T10:21:59.781Z,195
2019-02-09T10:23:09.697Z,195
2019-02-09T10:24:19.652Z,240
2019-02-09T10:25:29.395Z,215
2019-02-09T10:26:39.169Z,225
2019-02-09T10:27:48.894Z,270
2019-02-09T10:28:58.192Z,295
2019-02-09T10:30:08.527Z,305
2019-02-09T10:31:17.953Z,300
2019-02-09T10:32:27.630Z,280
2019-02-09T10:33:37.560Z,265
2019-02-09T10:34:47.500Z,240
2019-02-09T10:35:57.192Z,210
2019-02-09T10:37:07.128Z,245
2019-02-09T10:38:17.057Z,245
2019-02-09T10:39:26.755Z,285
2019-02-09T10:40:36.453Z,280
2019-02-09T10:41:46.687Z,315
2019-02-09T10:42:56.875Z,270
2019-02-09T10:44:06.647Z,230
2019-02-09T10:45:16.580Z,255
2019-02-09T10:46:26.014Z,290
2019-02-09T10:47:35.452Z,260
2019-02-09T10:48:44.878Z,280
2019-02-09T10:49:54.323Z,280
2019-02-09T10:51:04.258Z,310
2019-02-09T10:52:13.941Z,285
2019-02-09T10:53:23.120Z,335
2019-02-09T10:54:32.795Z,270
2019-02-09T10:55:42.473Z,250
2019-02-09T10:56:52.404Z,265
2019-02-09T10:58:02.082Z,265
2019-02-09T10:59:11.534Z,335
2019-02-09T11:00:21.486Z,410
2019-02-09T11:01:30.931Z,350
2019-02-09T11:02:40.630Z,325
2019-02-09T11:03:50.073Z,355
2019-02-09T11:04:59.747Z,300
2019-02-09T11:06:09.426Z,290
2019-02-09T11:07:19.114Z,295
2019-02-09T11:08:28.546Z,275
2019-02-09T11:09:38.234Z,345
2019-02-09T11:10:47.934Z,385
2019-02-09T11:11:58.003Z,425
2019-02-09T11:13:07.438Z,375
2019-02-09T11:14:17.111Z,320
2019-02-09T11:15:26.307Z,395
2019-02-09T11:16:35.737Z,370
2019-02-09T11:17:45.686Z,395
2019-02-09T11:18:55.614Z,385
2019-02-09T11:20:05.305Z,325
2019-02-09T11:21:15.240Z,250
2019-02-09T11:22:25.173Z,210
2019-02-09T11:23:34.613Z,290
2019-02-09T11:24:44.287Z,370
2019-02-09T11:25:53.977Z,390
2019-02-09T11:27:03.913Z,365
2019-02-09T11:28:13.909Z,245
2019-02-09T11:29:24.552Z,220
2019-02-09T11:30:34.065Z,235
2019-02-09T11:31:46.246Z,235
2019-02-09T11:33:04.798Z,305
2019-02-09T11:34:14.583Z,320
2019-02-09T11:35:24.273Z,310
2019-02-09T11:36:33.948Z,285
2019-02-09T11:37:43.379Z,290
2019-02-09T11:38:53.060Z,270
2019-02-09T11:40:02.768Z,200
2019-02-09T11:41:14.083Z,155
2019-02-09T11:42:24.851Z,115
2019-02-09T11:43:34.790Z,105
2019-02-09T11:44:50.196Z,110
2019-02-09T11:46:00.143Z,125
2019-02-09T11:47:10.070Z,130
2019-02-09T11:48:20.006Z,125
2019-02-09T11:49:29.683Z,125
2019-02-09T11:50:39.409Z,155
2019-02-09T11:51:49.153Z,270
2019-02-09T11:52:58.614Z,360
2019-02-09T11:54:08.815Z,295
2019-02-09T11:55:18.494Z,205
2019-02-09T11:56:28.848Z,170
2019-02-09T11:57:38.278Z,155
2019-02-09T11:58:48.221Z,200
2019-02-09T11:59:57.897Z,245
2019-02-09T12:01:07.581Z,345
2019-02-09T12:02:18.098Z,345
2019-02-09T12:03:27.785Z,295
2019-02-09T12:04:37.478Z,310
2019-02-09T12:05:47.408Z,355
2019-02-09T12:06:57.054Z,370
2019-02-09T12:08:06.737Z,365
2019-02-09T12:09:16.673Z,345
2019-02-09T12:10:26.354Z,365
2019-02-09T12:11:35.796Z,365
2019-02-09T12:12:45.221Z,330
2019-02-09T12:14:02.534Z,245
2019-02-09T12:15:12.213Z,240
2019-02-09T12:16:22.147Z,285
2019-02-09T12:17:31.583Z,260
2019-02-09T12:18:41.007Z,230
2019-02-09T12:19:50.686Z,165
2019-02-09T12:21:00.378Z,155
2019-02-09T12:22:10.322Z,205
2019-02-09T12:25:43.241Z,240
2019-02-09T12:26:52.920Z,300
2019-02-09T12:28:02.230Z,285
2019-02-09T12:29:11.965Z,265
2019-02-09T12:30:21.643Z,280
2019-02-09T12:31:31.472Z,305
2019-02-09T12:32:40.904Z,270
2019-02-09T12:33:50.334Z,310
2019-02-09T12:34:59.762Z,230
2019-02-09T12:36:09.201Z,240
2019-02-09T12:37:19.141Z,260
2019-02-09T12:38:28.828Z,260
2019-02-09T12:39:38.544Z,315
2019-02-09T12:40:47.990Z,320
2019-02-09T12:41:57.716Z,230
2019-02-09T12:43:07.411Z,225
2019-02-09T12:44:16.837Z,220
2019-02-09T12:45:26.277Z,260
2019-02-09T12:46:35.961Z,325
2019-02-09T12:47:45.893Z,310
2019-02-09T12:48:55.316Z,330
2019-02-09T12:50:05.251Z,460
2019-02-09T12:51:14.930Z,480
2019-02-09T12:52:24.624Z,525
2019-02-09T12:53:34.353Z,460
2019-02-09T12:54:44.286Z,390
2019-02-09T12:55:53.972Z,345
2019-02-09T12:57:03.410Z,230
2019-02-09T12:58:12.634Z,240
2019-02-09T12:59:24.461Z,195
2019-02-09T13:00:34.178Z,245
2019-02-09T13:01:43.854Z,385
2019-02-09T13:02:53.030Z,455
2019-02-09T13:04:02.705Z,405
2019-02-09T13:05:12.838Z,345
2019-02-09T13:06:22.518Z,270
2019-02-09T13:07:32.199Z,290
2019-02-09T13:08:41.875Z,290
2019-02-09T13:09:51.805Z,290
2019-02-09T13:11:01.500Z,305
2019-02-09T13:12:11.194Z,220
2019-02-09T13:13:20.390Z,160
2019-02-09T13:14:30.478Z,110
2019-02-09T13:15:39.925Z,95
2019-02-09T13:16:49.611Z,85
2019-02-09T13:17:59.289Z,60
2019-02-09T13:19:08.968Z,55
2019-02-09T13:20:18.895Z,65
2019-02-09T13:21:28.839Z,80
2019-02-09T13:22:38.520Z,235
2019-02-09T13:23:48.203Z,370
2019-02-09T13:24:57.873Z,285
2019-02-09T13:26:07.306Z,315
2019-02-09T13:27:16.739Z,290
2019-02-09T13:28:25.920Z,205
2019-02-09T13:29:35.592Z,225
2019-02-09T13:30:45.078Z,275
2019-02-09T13:31:54.760Z,295
2019-02-09T13:33:04.218Z,280
2019-02-09T13:34:13.656Z,225
2019-02-09T13:35:23.095Z,235
2019-02-09T13:36:33.030Z,235
2019-02-09T13:37:42.703Z,230
2019-02-09T13:38:52.142Z,235
2019-02-09T13:40:02.074Z,210
2019-02-09T13:41:11.526Z,235
2019-02-09T13:42:21.213Z,210
2019-02-09T13:43:30.907Z,185
2019-02-09T13:44:39.853Z,185
2019-02-09T13:45:49.558Z,235
2019-02-09T13:46:59.001Z,310
2019-02-09T13:48:08.681Z,345
2019-02-09T13:49:18.369Z,275
2019-02-09T13:50:27.820Z,190
2019-02-09T13:51:37.750Z,165
2019-02-09T13:52:47.189Z,245
2019-02-09T13:53:56.692Z,265
2019-02-09T13:55:06.387Z,270
2019-02-09T13:56:15.950Z,270
2019-02-09T13:57:25.638Z,240
2019-02-09T13:58:35.097Z,290
2019-02-09T13:59:44.572Z,380
2019-02-09T14:00:54.051Z,330
2019-02-09T14:02:03.988Z,325
2019-02-09T14:03:13.927Z,365
2019-02-09T14:04:23.350Z,320
2019-02-09T14:05:32.533Z,270
2019-02-09T14:06:42.458Z,260
2019-02-09T14:07:52.181Z,240
2019-02-09T14:09:01.906Z,250
2019-02-09T14:10:11.126Z,250
2019-02-09T14:11:20.570Z,230
2019-02-09T14:12:30.526Z,175
2019-02-09T14:13:40.253Z,220
2019-02-09T14:14:49.684Z,280
2019-02-09T14:15:58.881Z,245
2019-02-09T14:17:08.333Z,240
2019-02-09T14:18:17.783Z,280
2019-02-09T14:19:27.213Z,250
2019-02-09T14:20:36.905Z,260
2019-02-09T14:21:46.362Z,425
2019-02-09T14:22:55.297Z,355
2019-02-09T14:24:05.236Z,160
2019-02-09T14:25:14.423Z,210
2019-02-09T14:26:24.105Z,260
2019-02-09T14:27:33.528Z,220
2019-02-09T14:28:43.475Z,200
2019-02-09T14:29:53.399Z,200
2019-02-09T14:31:02.576Z,185
2019-02-09T14:32:11.768Z,100
2019-02-09T14:33:21.698Z,75
2019-02-09T14:34:31.988Z,90
2019-02-09T14:35:41.668Z,95
2019-02-09T14:36:51.599Z,75
2019-02-09T14:38:01.280Z,65
2019-02-09T14:39:10.709Z,70
2019-02-09T14:40:20.143Z,75
2019-02-09T14:41:30.092Z,90
2019-02-09T14:42:39.772Z,105
2019-02-09T14:43:49.456Z,125
2019-02-09T14:44:59.138Z,100
2019-02-09T14:46:08.821Z,75
2019-02-09T14:47:18.511Z,85
2019-02-09T14:48:28.194Z,75
2019-02-09T14:49:38.130Z,55
2019-02-09T14:50:47.565Z,45
2019-02-09T14:51:57.262Z,55
2019-02-09T14:53:06.952Z,75
2019-02-09T14:54:16.663Z,110
2019-02-09T14:55:26.095Z,90
2019-02-09T14:56:35.539Z,60
2019-02-09T14:57:44.965Z,60
2019-02-09T14:58:54.148Z,70
2019-02-09T15:00:03.847Z,115
2019-02-09T15:01:13.584Z,120
2019-02-09T15:02:23.015Z,100
2019-02-09T15:03:38.379Z,75
2019-02-09T15:04:47.805Z,55
2019-02-09T15:05:57.689Z,55
2019-02-09T15:07:07.126Z,80
2019-02-09T15:08:16.813Z,105
2019-02-09T15:09:26.500Z,140
2019-02-09T15:10:36.192Z,125
2019-02-09T15:11:45.379Z,85
2019-02-09T15:12:54.549Z,70
2019-02-09T15:14:06.168Z,80
2019-02-09T15:15:16.108Z,105
2019-02-09T15:16:26.047Z,110
2019-02-09T15:17:35.467Z,95
2019-02-09T15:18:45.139Z,80
2019-02-09T15:19:54.580Z,75
2019-02-09T15:21:04.259Z,60
2019-02-09T15:22:13.435Z,55
2019-02-09T15:23:23.377Z,70
2019-02-09T15:24:32.803Z,90
2019-02-09T15:25:42.230Z,75
2019-02-09T15:26:51.907Z,65
2019-02-09T15:28:01.854Z,65
2019-02-09T15:29:11.041Z,70
2019-02-09T15:30:20.221Z,70
2019-02-09T15:31:30.155Z,75
2019-02-09T15:32:39.847Z,70
2019-02-09T15:33:49.293Z,55
2019-02-09T15:34:58.232Z,45
2019-02-09T15:36:08.098Z,50
2019-02-09T15:37:17.777Z,55
2019-02-09T15:38:28.370Z,50
2019-02-09T15:39:38.307Z,40
2019-02-09T15:40:48.239Z,35
2019-02-09T15:41:57.926Z,35
2019-02-09T15:43:07.652Z,25
2019-02-09T15:44:17.092Z,20
2019-02-09T15:45:26.774Z,20
2019-02-09T15:46:36.201Z,20
2019-02-09T15:47:45.879Z,25
2019-02-09T15:48:55.299Z,20
2019-02-09T15:50:04.981Z,20
2019-02-09T15:51:14.429Z,20
2019-02-09T15:52:24.120Z,15
2019-02-09T15:53:33.546Z,10
2019-02-09T15:54:42.976Z,10
2019-02-09T15:55:52.917Z,10
2019-02-09T15:57:02.340Z,5
2019-02-09T15:58:11.769Z,5
2019-02-09T15:59:22.844Z,5
2019-02-09T16:00:32.294Z,5
2019-02-09T16:01:42.222Z,5
2019-02-09T16:02:51.646Z,5
2019-02-09T16:04:01.073Z,5
2019-02-09T16:05:10.255Z,0
2019-02-09T16:06:19.677Z,0
2019-02-09T16:07:29.351Z,5
2019-02-09T16:08:39.038Z,5
2019-02-09T16:09:48.717Z,5
2019-02-09T16:10:58.393Z,5
2019-02-09T16:12:08.069Z,5
2019-02-09T16:13:17.801Z,5
2019-02-09T16:14:27.487Z,5
2019-02-09T16:15:37.439Z,5
2019-02-09T16:16:47.372Z,5
2019-02-09T16:17:57.295Z,0
2019-02-09T16:19:07.231Z,0
2019-02-09T16:20:16.410Z,5
2019-02-09T16:21:25.863Z,0
2019-02-09T16:22:35.531Z,0
2019-02-09T16:23:45.492Z,0
2019-02-09T16:24:54.925Z,0
2019-02-09T16:26:04.600Z,0
2019-02-09T16:27:14.273Z,0
2019-02-09T16:28:23.705Z,0
2019-02-09T16:29:33.390Z,0
2019-02-09T16:30:42.838Z,0
2019-02-09T16:31:52.890Z,0
2019-02-09T16:33:02.324Z,0
2019-02-09T16:34:12.264Z,0
2019-02-09T16:35:22.190Z,0
2019-02-09T16:36:32.113Z,0
2019-02-09T16:37:41.573Z,0
2019-02-09T16:38:51.204Z,0
2019-02-09T16:40:00.909Z,0
2019-02-09T16:41:10.834Z,0
2019-02-09T16:42:20.759Z,0